createdAt,value
2023-03-27T00:00:19.657Z,11.2
2023-03-27T00:01:19.645Z,11.0
2023-03-27T00:02:19.714Z,12.6
2023-03-27T00:03:19.817Z,11.0
2023-03-27T00:04:19.689Z,11.7
2023-03-27T00:05:19.557Z,12.5
2023-03-27T00:06:19.608Z,12.4
2023-03-27T00:07:19.599Z,12.8
2023-03-27T00:08:19.654Z,12.3
2023-03-27T00:09:19.794Z,12.5
2023-03-27T00:10:19.661Z,14.0
2023-03-27T00:11:19.593Z,13.6
2023-03-27T00:12:19.565Z,13.0
2023-03-27T00:13:19.604Z,13.4
2023-03-27T00:14:19.650Z,13.0
2023-03-27T00:15:19.665Z,13.8
2023-03-27T00:16:19.649Z,14.0
2023-03-27T00:17:19.589Z,13.6
2023-03-27T00:18:19.600Z,13.3
2023-03-27T00:19:19.637Z,14.1
2023-03-27T00:20:19.901Z,12.4
2023-03-27T00:21:19.653Z,13.2
2023-03-27T00:22:19.558Z,14.1
2023-03-27T00:23:19.577Z,15.2
2023-03-27T00:24:19.592Z,16.2
2023-03-27T00:25:19.696Z,17.3
2023-03-27T00:26:19.590Z,15.0
2023-03-27T00:27:19.554Z,13.4
2023-03-27T00:28:19.587Z,13.9
2023-03-27T00:29:19.636Z,11.9
2023-03-27T00:30:19.543Z,12.3
2023-03-27T00:31:19.892Z,12.6
2023-03-27T00:32:19.622Z,12.2
2023-03-27T00:33:19.569Z,13.0
2023-03-27T00:34:19.595Z,12.1
2023-03-27T00:35:19.583Z,12.7
2023-03-27T00:36:19.670Z,12.5
2023-03-27T00:37:19.529Z,12.3
2023-03-27T00:38:19.525Z,11.7
2023-03-27T00:39:19.568Z,12.0
2023-03-27T00:40:19.605Z,11.5
2023-03-27T00:41:19.644Z,11.0
2023-03-27T00:42:19.527Z,11.7
2023-03-27T00:43:19.590Z,10.9
2023-03-27T00:44:19.603Z,11.2
2023-03-27T00:45:19.550Z,10.2
2023-03-27T00:46:19.539Z,9.9
2023-03-27T00:47:19.518Z,9.2
2023-03-27T00:48:19.518Z,8.7
2023-03-27T00:49:19.667Z,9.0
2023-03-27T00:50:19.704Z,8.3
2023-03-27T00:51:19.593Z,7.8
2023-03-27T00:52:19.496Z,8.3
2023-03-27T00:53:19.521Z,6.9
2023-03-27T00:54:19.636Z,6.4
2023-03-27T00:55:19.595Z,6.1
2023-03-27T00:56:19.557Z,5.6
2023-03-27T00:57:19.931Z,5.1
2023-03-27T00:58:19.540Z,6.0
2023-03-27T00:59:19.695Z,5.9
2023-03-27T01:00:19.788Z,5.0
2023-03-27T01:01:19.823Z,5.4
2023-03-27T01:02:19.749Z,5.2
2023-03-27T01:03:19.734Z,5.1
2023-03-27T01:04:19.790Z,4.1
2023-03-27T01:05:19.735Z,4.4
2023-03-27T01:06:19.793Z,4.1
2023-03-27T01:07:19.618Z,4.0
2023-03-27T01:08:19.733Z,4.6
2023-03-27T01:09:20.553Z,4.8
2023-03-27T01:10:19.779Z,4.7
2023-03-27T01:11:19.675Z,7.5
2023-03-27T01:12:20.864Z,7.4
2023-03-27T01:13:19.601Z,8.1
2023-03-27T01:14:19.648Z,7.3
2023-03-27T01:15:19.618Z,7.4
2023-03-27T01:16:19.621Z,8.5
2023-03-27T01:17:19.484Z,8.4
2023-03-27T01:18:19.494Z,9.3
2023-03-27T01:19:19.758Z,11.1
2023-03-27T01:20:19.487Z,10.0
2023-03-27T01:21:19.734Z,10.3
2023-03-27T01:22:19.481Z,9.8
2023-03-27T01:23:35.327Z,10.3
2023-03-27T01:24:19.487Z,9.3
2023-03-27T01:25:19.443Z,9.6
2023-03-27T01:26:35.304Z,10.8
2023-03-27T01:27:19.463Z,10.7
2023-03-27T01:28:19.479Z,11.5
2023-03-27T01:29:19.439Z,11.7
2023-03-27T01:30:19.447Z,10.4
2023-03-27T01:31:19.440Z,11.8
2023-03-27T01:32:19.454Z,11.8
2023-03-27T01:33:19.463Z,12.5
2023-03-27T01:34:19.421Z,13.3
2023-03-27T01:35:19.459Z,14.8
2023-03-27T01:36:19.440Z,15.9
2023-03-27T01:37:20.217Z,16.3
2023-03-27T01:38:19.657Z,15.3
2023-03-27T01:39:19.520Z,18.5
2023-03-27T01:40:19.501Z,20.5
2023-03-27T01:41:19.426Z,24.3
2023-03-27T01:42:19.404Z,16.6
2023-03-27T01:43:19.517Z,16.9
2023-03-27T01:44:19.574Z,16.2
2023-03-27T01:45:19.438Z,15.5
2023-03-27T01:46:19.490Z,14.3
2023-03-27T01:47:19.449Z,13.3
2023-03-27T01:48:19.404Z,12.7
2023-03-27T01:49:19.497Z,11.6
2023-03-27T01:50:19.450Z,11.5
2023-03-27T01:51:19.475Z,11.0
2023-03-27T01:52:19.435Z,11.0
2023-03-27T01:53:19.384Z,11.5
2023-03-27T01:54:19.440Z,10.9
2023-03-27T01:55:19.551Z,11.0
2023-03-27T01:56:19.441Z,11.8
2023-03-27T01:57:19.705Z,10.5
2023-03-27T01:58:19.549Z,11.5
2023-03-27T01:59:19.419Z,10.6
2023-03-27T02:00:19.779Z,11.6
2023-03-27T02:01:19.457Z,10.9
2023-03-27T02:02:19.434Z,10.9
2023-03-27T02:04:19.560Z,10.9
2023-03-27T02:05:19.509Z,10.2
2023-03-27T02:06:19.406Z,10.6
2023-03-27T02:07:19.560Z,10.1
2023-03-27T02:08:19.500Z,9.4
2023-03-27T02:09:21.353Z,10.0
2023-03-27T02:10:19.405Z,9.6
2023-03-27T02:11:19.406Z,9.2
2023-03-27T02:12:19.372Z,9.4
2023-03-27T02:13:19.454Z,9.4
2023-03-27T02:14:19.368Z,9.5
2023-03-27T02:15:24.586Z,10.1
2023-03-27T02:16:19.446Z,10.8
2023-03-27T02:17:19.338Z,11.5
2023-03-27T02:18:19.354Z,12.4
2023-03-27T02:19:19.381Z,14.0
2023-03-27T02:20:19.405Z,12.7
2023-03-27T02:21:20.338Z,13.1
2023-03-27T02:22:19.365Z,13.5
2023-03-27T02:23:19.369Z,13.7
2023-03-27T02:24:19.435Z,14.2
2023-03-27T02:25:19.410Z,14.4
2023-03-27T02:26:19.403Z,14.1
2023-03-27T02:27:19.363Z,15.3
2023-03-27T02:28:19.363Z,14.6
2023-03-27T02:29:19.383Z,15.2
2023-03-27T02:30:19.583Z,15.7
2023-03-27T02:31:33.276Z,15.3
2023-03-27T02:32:19.520Z,15.8
2023-03-27T02:33:19.397Z,15.3
2023-03-27T02:34:19.327Z,16.4
2023-03-27T02:35:19.340Z,16.5
2023-03-27T02:36:19.369Z,15.9
2023-03-27T02:37:19.368Z,15.9
2023-03-27T02:38:19.341Z,16.0
2023-03-27T02:39:19.361Z,15.0
2023-03-27T02:40:19.298Z,15.0
2023-03-27T02:41:19.486Z,13.4
2023-03-27T02:42:19.413Z,15.6
2023-03-27T02:43:19.309Z,14.6
2023-03-27T02:44:20.274Z,14.5
2023-03-27T02:45:19.305Z,14.9
2023-03-27T02:46:19.431Z,14.2
2023-03-27T02:47:19.375Z,14.3
2023-03-27T02:48:19.405Z,14.4
2023-03-27T02:49:19.309Z,13.6
2023-03-27T02:50:19.308Z,13.5
2023-03-27T02:51:19.373Z,12.9
2023-03-27T02:52:19.349Z,14.3
2023-03-27T02:53:19.339Z,12.6
2023-03-27T02:54:19.391Z,13.0
2023-03-27T02:55:19.309Z,12.5
2023-03-27T02:56:19.323Z,13.5
2023-03-27T02:57:20.056Z,12.4
2023-03-27T02:58:19.327Z,12.2
2023-03-27T02:59:19.321Z,11.5
2023-03-27T03:00:19.447Z,11.0
2023-03-27T03:01:19.396Z,11.2
2023-03-27T03:02:19.527Z,10.8
2023-03-27T03:03:19.496Z,11.4
2023-03-27T03:04:19.319Z,11.2
2023-03-27T03:05:20.343Z,10.2
2023-03-27T03:06:19.310Z,10.2
2023-03-27T03:07:20.353Z,9.7
2023-03-27T03:08:19.298Z,10.3
2023-03-27T03:09:19.313Z,8.7
2023-03-27T03:10:19.308Z,9.5
2023-03-27T03:11:19.299Z,9.7
2023-03-27T03:12:19.290Z,10.0
2023-03-27T03:13:19.309Z,9.9
2023-03-27T03:14:19.445Z,9.2
2023-03-27T03:15:19.293Z,9.4
2023-03-27T03:16:19.322Z,9.1
2023-03-27T03:17:19.261Z,10.2
2023-03-27T03:18:19.330Z,10.1
2023-03-27T03:19:19.255Z,9.1
2023-03-27T03:20:19.451Z,9.0
2023-03-27T03:21:19.277Z,8.9
2023-03-27T03:22:19.235Z,9.0
2023-03-27T03:23:19.303Z,9.5
2023-03-27T03:24:19.253Z,10.1
2023-03-27T03:25:19.421Z,9.5
2023-03-27T03:26:19.268Z,9.3
2023-03-27T03:27:19.256Z,9.5
2023-03-27T03:28:19.310Z,9.2
2023-03-27T03:29:19.335Z,10.0
2023-03-27T03:30:19.297Z,9.8
2023-03-27T03:31:19.273Z,9.4
2023-03-27T03:32:19.277Z,9.1
2023-03-27T03:33:19.285Z,9.4
2023-03-27T03:34:19.706Z,9.5
2023-03-27T03:35:19.286Z,9.3
2023-03-27T03:36:19.435Z,9.9
2023-03-27T03:37:19.245Z,9.7
2023-03-27T03:38:19.266Z,9.4
2023-03-27T03:39:19.213Z,9.6
2023-03-27T03:40:19.238Z,10.5
2023-03-27T03:41:20.841Z,8.8
2023-03-27T03:42:22.831Z,9.1
2023-03-27T03:43:19.256Z,9.3
2023-03-27T03:44:19.286Z,9.9
2023-03-27T03:45:20.364Z,9.7
2023-03-27T03:46:19.319Z,9.9
2023-03-27T03:47:19.336Z,9.7
2023-03-27T03:48:19.241Z,9.5
2023-03-27T03:49:19.342Z,9.3
2023-03-27T03:50:19.282Z,9.2
2023-03-27T03:51:19.255Z,10.2
2023-03-27T03:52:19.274Z,9.3
2023-03-27T03:53:19.260Z,9.5
2023-03-27T03:54:19.200Z,10.5
2023-03-27T03:55:19.201Z,10.2
2023-03-27T03:56:19.242Z,9.7
2023-03-27T03:57:19.315Z,10.0
2023-03-27T03:58:19.643Z,10.5
2023-03-27T03:59:19.317Z,10.9
2023-03-27T04:00:19.258Z,9.3
2023-03-27T04:01:19.355Z,9.5
2023-03-27T04:02:19.533Z,10.1
2023-03-27T04:03:19.288Z,10.8
2023-03-27T04:04:19.209Z,10.4
2023-03-27T04:05:19.202Z,10.3
2023-03-27T04:06:20.555Z,9.6
2023-03-27T04:07:19.270Z,9.9
2023-03-27T04:08:19.199Z,9.4
2023-03-27T04:09:19.180Z,10.0
2023-03-27T04:10:19.187Z,9.8
2023-03-27T04:11:19.206Z,10.8
2023-03-27T04:12:19.210Z,10.4
2023-03-27T04:13:19.280Z,10.0
2023-03-27T04:14:19.214Z,9.5
2023-03-27T04:15:19.224Z,9.6
2023-03-27T04:16:19.286Z,10.0
2023-03-27T04:17:19.222Z,10.0
2023-03-27T04:18:19.394Z,10.7
2023-03-27T04:19:19.138Z,11.0
2023-03-27T04:20:19.350Z,10.6
2023-03-27T04:21:19.220Z,10.6
2023-03-27T04:22:19.216Z,10.0
2023-03-27T04:23:19.168Z,10.2
2023-03-27T04:24:19.194Z,9.7
2023-03-27T04:25:19.224Z,9.9
2023-03-27T04:26:19.356Z,9.1
2023-03-27T04:27:19.216Z,9.5
2023-03-27T04:28:19.170Z,9.8
2023-03-27T04:29:19.166Z,8.8
2023-03-27T04:30:19.260Z,9.8
2023-03-27T04:31:19.157Z,10.1
2023-03-27T04:32:19.511Z,9.2
2023-03-27T04:33:19.131Z,10.0
2023-03-27T04:34:19.163Z,9.9
2023-03-27T04:35:19.173Z,9.8
2023-03-27T04:36:19.185Z,10.8
2023-03-27T04:37:23.133Z,9.6
2023-03-27T04:38:19.128Z,9.4
2023-03-27T04:39:19.185Z,11.2
2023-03-27T04:40:19.175Z,9.9
2023-03-27T04:41:19.310Z,10.3
2023-03-27T04:42:19.500Z,9.9
2023-03-27T04:43:19.227Z,10.6
2023-03-27T04:44:19.141Z,9.5
2023-03-27T04:45:20.156Z,10.0
2023-03-27T04:46:19.172Z,10.7
2023-03-27T04:47:20.160Z,10.2
2023-03-27T04:48:19.106Z,10.2
2023-03-27T04:49:19.236Z,10.6
2023-03-27T04:50:19.187Z,10.9
2023-03-27T04:51:19.107Z,10.6
2023-03-27T04:52:19.110Z,11.4
2023-03-27T04:53:19.509Z,11.3
2023-03-27T04:54:19.222Z,12.2
2023-03-27T04:55:29.256Z,12.0
2023-03-27T04:56:19.132Z,10.5
2023-03-27T04:57:19.288Z,10.4
2023-03-27T04:58:19.124Z,9.9
2023-03-27T04:59:19.119Z,10.0
2023-03-27T05:00:19.251Z,9.6
2023-03-27T05:01:19.221Z,9.7
2023-03-27T05:02:19.122Z,9.6
2023-03-27T05:03:19.178Z,9.1
2023-03-27T05:04:19.064Z,9.7
2023-03-27T05:05:19.168Z,10.8
2023-03-27T05:06:19.084Z,9.5
2023-03-27T05:07:19.164Z,10.3
2023-03-27T05:08:19.183Z,9.0
2023-03-27T05:09:19.137Z,9.8
2023-03-27T05:10:21.856Z,8.8
2023-03-27T05:11:19.074Z,10.1
2023-03-27T05:12:19.205Z,9.8
2023-03-27T05:13:19.060Z,9.1
2023-03-27T05:14:19.162Z,9.9
2023-03-27T05:15:19.266Z,10.0
2023-03-27T05:16:19.169Z,9.9
2023-03-27T05:17:19.069Z,9.7
2023-03-27T05:18:19.090Z,9.4
2023-03-27T05:19:19.067Z,9.5
2023-03-27T05:20:19.076Z,10.5
2023-03-27T05:21:19.051Z,9.8
2023-03-27T05:22:19.065Z,10.7
2023-03-27T05:23:19.061Z,10.7
2023-03-27T05:24:19.102Z,11.6
2023-03-27T05:25:19.080Z,10.9
2023-03-27T05:26:19.156Z,11.9
2023-03-27T05:27:19.057Z,11.2
2023-03-27T05:28:19.050Z,11.1
2023-03-27T05:29:19.056Z,11.3
2023-03-27T05:30:19.037Z,11.7
2023-03-27T05:31:19.140Z,11.2
2023-03-27T05:32:19.042Z,11.4
2023-03-27T05:33:19.035Z,11.0
2023-03-27T05:34:19.017Z,11.1
2023-03-27T05:35:19.182Z,11.0
2023-03-27T05:36:19.023Z,11.0
2023-03-27T05:37:19.173Z,10.8
2023-03-27T05:38:19.039Z,10.6
2023-03-27T05:39:19.180Z,11.0
2023-03-27T05:40:19.202Z,9.6
2023-03-27T05:41:19.091Z,10.6
2023-03-27T05:42:19.100Z,9.8
2023-03-27T05:43:20.087Z,10.1
2023-03-27T05:44:19.096Z,10.4
2023-03-27T05:45:19.033Z,10.0
2023-03-27T05:46:21.000Z,9.6
2023-03-27T05:47:19.053Z,9.8
2023-03-27T05:48:19.219Z,9.8
2023-03-27T05:49:19.003Z,10.9
2023-03-27T05:50:19.029Z,9.8
2023-03-27T05:51:19.069Z,10.8
2023-03-27T05:52:19.075Z,10.9
2023-03-27T05:53:18.980Z,10.7
2023-03-27T05:54:19.046Z,11.0
2023-03-27T05:55:19.061Z,10.9
2023-03-27T05:56:19.088Z,11.6
2023-03-27T05:57:19.167Z,10.4
2023-03-27T05:58:18.990Z,9.8
2023-03-27T05:59:19.246Z,11.4
2023-03-27T06:00:19.228Z,10.6
2023-03-27T06:01:19.013Z,10.5
2023-03-27T06:02:21.117Z,11.3
2023-03-27T06:03:19.118Z,10.6
2023-03-27T06:04:19.188Z,10.3
2023-03-27T06:05:18.992Z,11.9
2023-03-27T06:06:18.987Z,11.1
2023-03-27T06:07:19.018Z,12.1
2023-03-27T06:08:19.047Z,11.2
2023-03-27T06:09:18.956Z,12.2
2023-03-27T06:10:19.507Z,11.0
2023-03-27T06:11:19.058Z,11.1
2023-03-27T06:12:19.074Z,12.1
2023-03-27T06:13:19.174Z,12.4
2023-03-27T06:14:19.081Z,12.2
2023-03-27T06:15:19.045Z,12.3
2023-03-27T06:16:18.975Z,12.5
2023-03-27T06:17:18.986Z,13.7
2023-03-27T06:18:19.064Z,13.3
2023-03-27T06:19:18.971Z,12.7
2023-03-27T06:20:18.977Z,12.8
2023-03-27T06:21:18.941Z,13.9
2023-03-27T06:22:18.946Z,13.9
2023-03-27T06:23:18.991Z,14.3
2023-03-27T06:24:18.974Z,13.4
2023-03-27T06:25:18.935Z,14.6
2023-03-27T06:26:18.951Z,13.8
2023-03-27T06:27:18.988Z,14.5
2023-03-27T06:28:18.950Z,13.8
2023-03-27T06:29:18.951Z,15.2
2023-03-27T06:30:18.975Z,14.7
2023-03-27T06:31:19.230Z,15.4
2023-03-27T06:32:18.940Z,14.6
2023-03-27T06:33:18.936Z,15.8
2023-03-27T06:34:18.878Z,14.5
2023-03-27T06:35:18.918Z,14.9
2023-03-27T06:36:18.960Z,14.2
2023-03-27T06:37:18.941Z,15.4
2023-03-27T06:38:19.111Z,14.8
2023-03-27T06:39:19.187Z,15.6
2023-03-27T06:40:18.935Z,14.7
2023-03-27T06:41:18.962Z,15.2
2023-03-27T06:42:19.056Z,15.2
2023-03-27T06:43:18.932Z,15.0
2023-03-27T06:44:18.966Z,15.2
2023-03-27T06:45:18.904Z,15.4
2023-03-27T06:46:18.957Z,16.3
2023-03-27T06:47:18.988Z,16.9
2023-03-27T06:48:21.599Z,17.4
2023-03-27T06:49:18.969Z,16.2
2023-03-27T06:50:19.069Z,16.7
2023-03-27T06:51:18.957Z,15.1
2023-03-27T06:52:18.887Z,15.6
2023-03-27T06:53:26.552Z,16.9
2023-03-27T06:54:18.902Z,15.8
2023-03-27T06:55:18.992Z,15.7
2023-03-27T06:56:18.945Z,16.1
2023-03-27T06:57:18.975Z,16.1
2023-03-27T06:58:19.555Z,16.2
2023-03-27T06:59:19.087Z,16.4
2023-03-27T07:00:19.026Z,15.5
2023-03-27T07:01:19.048Z,17.1
2023-03-27T07:02:18.930Z,16.7
2023-03-27T07:03:18.910Z,17.9
2023-03-27T07:04:19.159Z,17.2
2023-03-27T07:05:18.926Z,17.0
2023-03-27T07:06:18.873Z,17.0
2023-03-27T07:07:18.896Z,18.2
2023-03-27T07:08:23.433Z,18.3
2023-03-27T07:09:20.263Z,17.7
2023-03-27T07:10:18.937Z,18.4
2023-03-27T07:11:19.194Z,18.1
2023-03-27T07:12:18.918Z,18.1
2023-03-27T07:13:18.889Z,18.2
2023-03-27T07:14:18.891Z,18.5
2023-03-27T07:15:19.012Z,18.9
2023-03-27T07:16:18.958Z,19.2
2023-03-27T07:17:19.265Z,18.7
2023-03-27T07:18:18.937Z,18.9
2023-03-27T07:19:19.321Z,20.0
2023-03-27T07:20:19.062Z,20.0
2023-03-27T07:21:18.881Z,19.6
2023-03-27T07:22:18.810Z,18.9
2023-03-27T07:23:18.913Z,19.4
2023-03-27T07:24:18.856Z,19.5
2023-03-27T07:25:18.818Z,20.7
2023-03-27T07:26:41.528Z,20.0
2023-03-27T07:27:18.836Z,21.4
2023-03-27T07:28:18.859Z,19.9
2023-03-27T07:29:18.939Z,21.4
2023-03-27T07:30:18.844Z,20.5
2023-03-27T07:32:29.755Z,18.9
2023-03-27T07:33:18.982Z,20.8
2023-03-27T07:34:19.134Z,21.5
2023-03-27T07:35:18.876Z,20.8
2023-03-27T07:36:18.808Z,21.3
2023-03-27T07:37:18.850Z,20.6
2023-03-27T07:38:18.901Z,20.5
2023-03-27T07:39:18.957Z,21.0
2023-03-27T07:40:23.838Z,20.7
2023-03-27T07:41:18.827Z,21.9
2023-03-27T07:42:18.843Z,21.1
2023-03-27T07:43:18.813Z,20.8
2023-03-27T07:44:18.850Z,21.1
2023-03-27T07:45:18.926Z,20.0
2023-03-27T07:46:18.904Z,21.0
2023-03-27T07:47:19.003Z,20.9
2023-03-27T07:48:18.846Z,21.5
2023-03-27T07:49:18.780Z,21.3
2023-03-27T07:50:18.806Z,22.2
2023-03-27T07:51:18.898Z,21.8
2023-03-27T07:52:18.821Z,21.9
2023-03-27T07:53:34.847Z,23.6
2023-03-27T07:54:18.776Z,22.8
2023-03-27T07:55:18.806Z,23.3
2023-03-27T07:56:18.951Z,23.9
2023-03-27T07:57:18.916Z,24.5
2023-03-27T07:58:19.036Z,24.4
2023-03-27T07:59:18.771Z,24.7
2023-03-27T08:00:18.906Z,26.1
2023-03-27T08:01:18.834Z,25.6
2023-03-27T08:02:18.811Z,27.5
2023-03-27T08:03:18.889Z,29.1
2023-03-27T08:04:18.997Z,29.2
2023-03-27T08:05:18.817Z,29.5
2023-03-27T08:06:18.746Z,32.6
2023-03-27T08:07:18.932Z,32.9
2023-03-27T08:08:18.768Z,32.6
2023-03-27T08:09:18.931Z,33.7
2023-03-27T08:10:18.798Z,32.2
2023-03-27T08:11:29.613Z,32.0
2023-03-27T08:12:18.838Z,30.5
2023-03-27T08:13:18.859Z,28.5
2023-03-27T08:14:18.748Z,28.4
2023-03-27T08:16:18.854Z,28.8
2023-03-27T08:17:21.388Z,28.8
2023-03-27T08:18:18.982Z,28.3
2023-03-27T08:19:18.736Z,30.7
2023-03-27T08:20:19.186Z,29.9
2023-03-27T08:21:18.822Z,31.9
2023-03-27T08:22:18.912Z,31.1
2023-03-27T08:23:18.755Z,33.9
2023-03-27T08:24:18.770Z,32.1
2023-03-27T08:25:18.752Z,32.8
2023-03-27T08:26:18.779Z,33.4
2023-03-27T08:27:18.901Z,33.6
2023-03-27T08:28:18.735Z,32.5
2023-03-27T08:29:18.756Z,34.1
2023-03-27T08:30:18.847Z,31.9
2023-03-27T08:31:18.988Z,31.3
2023-03-27T08:32:18.764Z,31.7
2023-03-27T08:33:18.861Z,30.6
2023-03-27T08:34:18.743Z,32.4
2023-03-27T08:35:18.939Z,30.8
2023-03-27T08:36:18.735Z,31.4
2023-03-27T08:37:18.671Z,31.3
2023-03-27T08:38:26.052Z,30.7
2023-03-27T08:39:18.734Z,31.9
2023-03-27T08:40:18.860Z,32.7
2023-03-27T08:41:18.676Z,30.3
2023-03-27T08:42:19.423Z,31.8
2023-03-27T08:43:18.815Z,30.8
2023-03-27T08:44:18.717Z,31.2
2023-03-27T08:45:18.684Z,31.4
2023-03-27T08:46:18.731Z,30.6
2023-03-27T08:47:18.768Z,31.9
2023-03-27T08:48:21.214Z,30.8
2023-03-27T08:49:18.714Z,32.0
2023-03-27T08:50:18.691Z,30.7
2023-03-27T08:51:18.740Z,30.0
2023-03-27T08:52:18.739Z,28.0
2023-03-27T08:53:18.882Z,26.4
2023-03-27T08:54:18.721Z,23.8
2023-03-27T08:55:18.787Z,23.6
2023-03-27T08:56:18.704Z,22.8
2023-03-27T08:57:28.992Z,22.9
2023-03-27T08:58:18.768Z,21.8
2023-03-27T08:59:18.785Z,22.2
2023-03-27T09:00:18.776Z,21.3
2023-03-27T09:01:18.757Z,20.3
2023-03-27T09:02:18.732Z,20.2
2023-03-27T09:03:18.895Z,20.1
2023-03-27T09:04:18.990Z,18.7
2023-03-27T09:05:18.772Z,17.7
2023-03-27T09:06:18.751Z,16.6
2023-03-27T09:07:18.779Z,17.5
2023-03-27T09:08:18.703Z,18.0
2023-03-27T09:09:18.967Z,15.8
2023-03-27T09:10:21.513Z,17.0
2023-03-27T09:11:20.599Z,16.2
2023-03-27T09:12:18.731Z,15.9
2023-03-27T09:13:18.691Z,14.5
2023-03-27T09:14:18.670Z,14.9
2023-03-27T09:15:18.934Z,14.1
2023-03-27T09:16:18.721Z,13.1
2023-03-27T09:17:18.627Z,12.9
2023-03-27T09:18:18.622Z,13.3
2023-03-27T09:19:18.639Z,13.7
2023-03-27T09:20:18.968Z,13.6
2023-03-27T09:21:18.670Z,14.2
2023-03-27T09:22:19.030Z,13.0
2023-03-27T09:23:20.956Z,12.8
2023-03-27T09:24:18.649Z,13.9
2023-03-27T09:25:18.701Z,13.8
2023-03-27T09:26:18.612Z,13.7
2023-03-27T09:27:18.701Z,14.2
2023-03-27T09:28:18.586Z,14.9
2023-03-27T09:29:20.139Z,13.5
2023-03-27T09:30:18.742Z,14.1
2023-03-27T09:31:18.676Z,13.0
2023-03-27T09:32:18.688Z,13.8
2023-03-27T09:33:18.681Z,13.9
2023-03-27T09:34:18.655Z,14.0
2023-03-27T09:35:18.645Z,13.6
2023-03-27T09:36:18.738Z,12.7
2023-03-27T09:37:18.843Z,13.5
2023-03-27T09:38:18.614Z,12.8
2023-03-27T09:39:18.687Z,13.2
2023-03-27T09:40:18.691Z,13.0
2023-03-27T09:41:18.667Z,12.2
2023-03-27T09:42:18.636Z,13.2
2023-03-27T09:43:18.709Z,12.3
2023-03-27T09:44:18.621Z,13.3
2023-03-27T09:45:18.637Z,12.0
2023-03-27T09:46:18.594Z,12.9
2023-03-27T09:47:18.634Z,12.1
2023-03-27T09:48:18.957Z,11.8
2023-03-27T09:49:18.631Z,12.7
2023-03-27T09:50:18.651Z,12.3
2023-03-27T09:52:18.635Z,12.4
2023-03-27T09:53:18.566Z,11.3
2023-03-27T09:54:18.735Z,10.7
2023-03-27T09:55:18.756Z,10.2
2023-03-27T09:56:18.597Z,8.8
2023-03-27T09:57:18.687Z,8.1
2023-03-27T09:58:18.608Z,8.9
2023-03-27T09:59:18.733Z,8.4
2023-03-27T10:00:18.712Z,7.4
2023-03-27T10:01:20.225Z,7.7
2023-03-27T10:02:18.584Z,7.1
2023-03-27T10:03:18.646Z,7.6
2023-03-27T10:04:18.653Z,7.5
2023-03-27T10:05:18.575Z,7.8
2023-03-27T10:06:18.536Z,8.6
2023-03-27T10:07:18.627Z,8.2
2023-03-27T10:08:43.326Z,8.0
2023-03-27T10:09:18.618Z,9.0
2023-03-27T10:10:18.591Z,8.7
2023-03-27T10:11:18.545Z,8.4
2023-03-27T10:12:18.599Z,8.9
2023-03-27T10:13:18.594Z,9.3
2023-03-27T10:14:18.736Z,9.2
2023-03-27T10:15:18.595Z,9.6
2023-03-27T10:16:18.745Z,10.1
2023-03-27T10:17:18.574Z,9.5
2023-03-27T10:18:18.569Z,10.1
2023-03-27T10:19:18.523Z,10.3
2023-03-27T10:20:18.591Z,9.4
2023-03-27T10:21:18.803Z,10.5
2023-03-27T10:22:18.559Z,10.8
2023-03-27T10:23:18.562Z,10.2
2023-03-27T10:24:18.511Z,10.2
2023-03-27T10:25:18.563Z,9.6
2023-03-27T10:26:20.642Z,9.4
2023-03-27T10:27:18.515Z,10.4
2023-03-27T10:28:18.610Z,9.8
2023-03-27T10:29:18.505Z,10.2
2023-03-27T10:30:18.565Z,9.3
2023-03-27T10:31:18.532Z,8.4
2023-03-27T10:32:18.819Z,8.6
2023-03-27T10:33:18.633Z,7.8
2023-03-27T10:34:18.522Z,8.0
2023-03-27T10:35:18.512Z,7.2
2023-03-27T10:36:18.511Z,7.9
2023-03-27T10:37:41.261Z,7.3
2023-03-27T10:38:18.499Z,6.5
2023-03-27T10:39:18.568Z,6.6
2023-03-27T10:40:18.508Z,6.4
2023-03-27T10:41:28.559Z,6.0
2023-03-27T10:42:18.711Z,5.6
2023-03-27T10:43:18.659Z,5.0
2023-03-27T10:44:18.491Z,5.3
2023-03-27T10:45:18.547Z,5.6
2023-03-27T10:46:18.540Z,5.7
2023-03-27T10:47:18.521Z,5.5
2023-03-27T10:48:18.510Z,5.5
2023-03-27T10:49:18.498Z,6.1
2023-03-27T10:50:18.591Z,5.6
2023-03-27T10:51:18.530Z,5.4
2023-03-27T10:52:18.450Z,5.0
2023-03-27T10:53:18.599Z,5.0
2023-03-27T10:54:18.741Z,5.7
2023-03-27T10:55:18.502Z,5.5
2023-03-27T10:56:18.453Z,5.4
2023-03-27T10:57:18.958Z,5.0
2023-03-27T10:58:18.483Z,4.6
2023-03-27T10:59:23.402Z,5.0
2023-03-27T11:00:18.804Z,4.8
2023-03-27T11:01:18.586Z,5.2
2023-03-27T11:02:18.538Z,4.1
2023-03-27T11:03:18.575Z,4.7
2023-03-27T11:04:18.619Z,4.4
2023-03-27T11:05:18.902Z,4.4
2023-03-27T11:06:18.561Z,4.9
2023-03-27T11:07:18.583Z,4.0
2023-03-27T11:08:18.621Z,4.5
2023-03-27T11:09:18.757Z,4.6
2023-03-27T11:10:18.425Z,4.6
2023-03-27T11:11:18.458Z,4.2
2023-03-27T11:12:18.468Z,4.4
2023-03-27T11:13:18.535Z,4.6
2023-03-27T11:14:18.461Z,4.6
2023-03-27T11:15:18.480Z,4.4
2023-03-27T11:16:18.623Z,4.6
2023-03-27T11:17:18.456Z,4.3
2023-03-27T11:18:18.489Z,4.3
2023-03-27T11:19:18.407Z,4.2
2023-03-27T11:20:18.420Z,4.3
2023-03-27T11:21:19.511Z,4.7
2023-03-27T11:22:18.451Z,4.4
2023-03-27T11:23:18.415Z,4.4
2023-03-27T11:24:18.542Z,4.5
2023-03-27T11:25:18.442Z,4.7
2023-03-27T11:26:41.467Z,4.3
2023-03-27T11:27:18.483Z,4.4
2023-03-27T11:28:18.471Z,3.8
2023-03-27T11:29:18.444Z,4.0
2023-03-27T11:31:18.424Z,4.6
2023-03-27T11:32:18.581Z,3.5
2023-03-27T11:33:18.502Z,4.1
2023-03-27T11:34:29.104Z,3.5
2023-03-27T11:35:18.496Z,4.3
2023-03-27T11:36:18.412Z,3.7
2023-03-27T11:37:18.513Z,3.4
2023-03-27T11:38:18.537Z,3.4
2023-03-27T11:39:18.498Z,3.3
2023-03-27T11:40:18.513Z,3.2
2023-03-27T11:41:18.661Z,3.1
2023-03-27T11:42:18.598Z,3.4
2023-03-27T11:43:18.586Z,3.5
2023-03-27T11:44:18.470Z,3.8
2023-03-27T11:45:18.393Z,3.2
2023-03-27T11:46:18.443Z,3.5
2023-03-27T11:47:18.800Z,3.7
2023-03-27T11:48:18.700Z,3.4
2023-03-27T11:49:18.626Z,3.7
2023-03-27T11:50:18.338Z,3.3
2023-03-27T11:51:18.362Z,3.3
2023-03-27T11:52:18.456Z,3.7
2023-03-27T11:53:18.460Z,3.7
2023-03-27T11:54:18.529Z,3.2
2023-03-27T11:55:18.319Z,3.5
2023-03-27T11:56:18.430Z,3.3
2023-03-27T11:57:18.566Z,3.7
2023-03-27T11:58:18.413Z,3.8
2023-03-27T11:59:18.373Z,3.3
2023-03-27T12:00:18.396Z,3.3
2023-03-27T12:01:19.151Z,3.5
2023-03-27T12:02:18.563Z,2.8
2023-03-27T12:03:21.445Z,3.7
2023-03-27T12:04:18.509Z,3.6
2023-03-27T12:05:18.623Z,3.9
2023-03-27T12:06:18.692Z,3.1
2023-03-27T12:07:26.301Z,3.7
2023-03-27T12:08:18.374Z,2.8
2023-03-27T12:09:18.527Z,2.8
2023-03-27T12:10:18.367Z,3.2
2023-03-27T12:11:18.341Z,3.2
2023-03-27T12:12:18.372Z,3.3
2023-03-27T12:13:18.345Z,3.0
2023-03-27T12:14:19.162Z,2.7
2023-03-27T12:15:18.391Z,2.9
2023-03-27T12:16:18.410Z,2.9
2023-03-27T12:17:18.330Z,2.9
2023-03-27T12:18:18.349Z,3.2
2023-03-27T12:19:28.329Z,3.4
2023-03-27T12:20:18.582Z,3.5
2023-03-27T12:21:18.318Z,3.6
2023-03-27T12:22:23.844Z,3.4
2023-03-27T12:23:18.328Z,3.1
2023-03-27T12:24:19.258Z,3.5
2023-03-27T12:25:18.352Z,3.4
2023-03-27T12:26:18.404Z,3.4
2023-03-27T12:27:18.351Z,3.5
2023-03-27T12:28:23.168Z,3.8
2023-03-27T12:29:23.347Z,3.8
2023-03-27T12:30:18.348Z,3.3
2023-03-27T12:31:18.707Z,3.6
2023-03-27T12:32:18.367Z,3.4
2023-03-27T12:33:18.612Z,3.9
2023-03-27T12:34:18.433Z,3.4
2023-03-27T12:35:21.487Z,3.7
2023-03-27T12:36:18.385Z,3.9
2023-03-27T12:37:19.168Z,3.6
2023-03-27T12:38:18.683Z,3.8
2023-03-27T12:39:18.340Z,3.6
2023-03-27T12:40:18.586Z,3.4
2023-03-27T12:41:18.523Z,3.6
2023-03-27T12:42:19.221Z,3.5
2023-03-27T12:43:18.870Z,3.9
2023-03-27T12:44:18.299Z,3.7
2023-03-27T12:45:18.503Z,3.9
2023-03-27T12:46:18.386Z,3.7
2023-03-27T12:47:18.309Z,4.2
2023-03-27T12:48:18.317Z,4.1
2023-03-27T12:49:18.315Z,3.5
2023-03-27T12:50:18.312Z,3.5
2023-03-27T12:51:20.476Z,3.7
2023-03-27T12:52:18.453Z,4.0
2023-03-27T12:53:18.371Z,5.4
2023-03-27T12:54:18.492Z,6.3
2023-03-27T12:55:18.613Z,5.1
2023-03-27T12:56:18.315Z,7.1
2023-03-27T12:57:19.990Z,5.2
2023-03-27T12:58:18.563Z,4.4
2023-03-27T12:59:18.329Z,18.0
2023-03-27T13:00:18.344Z,5.5
2023-03-27T13:01:18.331Z,3.7
2023-03-27T13:02:18.399Z,3.8
2023-03-27T13:03:19.189Z,3.5
2023-03-27T13:04:18.274Z,3.5
2023-03-27T13:05:26.958Z,3.3
2023-03-27T13:06:18.439Z,2.9
2023-03-27T13:07:18.597Z,3.1
2023-03-27T13:08:18.799Z,3.3
2023-03-27T13:09:18.602Z,3.3
2023-03-27T13:10:18.290Z,3.4
2023-03-27T13:11:18.373Z,3.4
2023-03-27T13:12:18.989Z,3.3
2023-03-27T13:13:18.396Z,2.8
2023-03-27T13:14:18.478Z,3.4
2023-03-27T13:15:18.734Z,3.1
2023-03-27T13:16:18.434Z,3.0
2023-03-27T13:17:18.302Z,3.4
2023-03-27T13:18:18.473Z,3.0
2023-03-27T13:19:18.403Z,3.0
2023-03-27T13:20:18.331Z,3.0
2023-03-27T13:21:18.491Z,2.7
2023-03-27T13:22:18.312Z,3.0
2023-03-27T13:23:19.031Z,2.7
2023-03-27T13:24:18.513Z,3.1
2023-03-27T13:25:18.373Z,2.6
2023-03-27T13:26:19.612Z,2.5
2023-03-27T13:27:18.312Z,2.9
2023-03-27T13:28:18.585Z,3.0
2023-03-27T13:29:18.246Z,3.3
2023-03-27T13:30:20.523Z,3.0
2023-03-27T13:31:18.294Z,2.7
2023-03-27T13:32:18.295Z,2.7
2023-03-27T13:38:18.795Z,2.4
2023-03-27T13:39:18.288Z,2.5